sensor_id;sensor_type;location;lat;lon;timestamp;P1;durP1;ratioP1;P2;durP2;ratioP2
71148;SDS011;59072;42.144;25.200;2023-09-19T00:01:19;8.40;;;4.78;;
71148;SDS011;59072;42.144;25.200;2023-09-19T00:03:45;8.35;;;4.90;;
71148;SDS011;59072;42.144;25.200;2023-09-19T00:06:11;11.50;;;5.15;;
71148;SDS011;59072;42.144;25.200;2023-09-19T00:08:40;10.38;;;4.85;;
71148;SDS011;59072;42.144;25.200;2023-09-19T00:11:09;6.90;;;4.38;;
71148;SDS011;59072;42.144;25.200;2023-09-19T00:13:36;14.75;;;5.85;;
71148;SDS011;59072;42.144;25.200;2023-09-19T00:16:07;9.93;;;5.22;;
71148;SDS011;59072;42.144;25.200;2023-09-19T00:18:35;12.05;;;5.32;;
71148;SDS011;59072;42.144;25.200;2023-09-19T00:21:01;8.50;;;5.00;;
71148;SDS011;59072;42.144;25.200;2023-09-19T00:23:27;12.23;;;6.10;;
71148;SDS011;59072;42.144;25.200;2023-09-19T00:25:53;9.45;;;5.00;;
71148;SDS011;59072;42.144;25.200;2023-09-19T00:28:22;7.72;;;4.40;;
71148;SDS011;59072;42.144;25.200;2023-09-19T00:30:48;11.55;;;5.25;;
71148;SDS011;59072;42.144;25.200;2023-09-19T00:33:16;7.82;;;4.20;;
71148;SDS011;59072;42.144;25.200;2023-09-19T00:35:48;7.72;;;4.65;;
71148;SDS011;59072;42.144;25.200;2023-09-19T00:38:14;18.75;;;7.70;;
71148;SDS011;59072;42.144;25.200;2023-09-19T00:40:45;18.20;;;7.47;;
71148;SDS011;59072;42.144;25.200;2023-09-19T00:43:11;11.90;;;5.97;;
71148;SDS011;59072;42.144;25.200;2023-09-19T00:45:37;8.98;;;5.38;;
71148;SDS011;59072;42.144;25.200;2023-09-19T00:48:07;8.93;;;4.85;;
71148;SDS011;59072;42.144;25.200;2023-09-19T00:50:34;9.40;;;5.20;;
71148;SDS011;59072;42.144;25.200;2023-09-19T00:53:00;10.80;;;5.65;;
71148;SDS011;59072;42.144;25.200;2023-09-19T00:55:27;7.88;;;4.85;;
71148;SDS011;59072;42.144;25.200;2023-09-19T00:57:55;8.18;;;5.07;;
71148;SDS011;59072;42.144;25.200;2023-09-19T01:00:22;7.90;;;5.45;;
71148;SDS011;59072;42.144;25.200;2023-09-19T01:02:48;7.90;;;5.38;;
71148;SDS011;59072;42.144;25.200;2023-09-19T01:05:14;8.10;;;5.35;;
71148;SDS011;59072;42.144;25.200;2023-09-19T01:07:40;9.02;;;5.45;;
71148;SDS011;59072;42.144;25.200;2023-09-19T01:10:06;8.63;;;5.38;;
71148;SDS011;59072;42.144;25.200;2023-09-19T01:12:48;13.57;;;6.50;;
71148;SDS011;59072;42.144;25.200;2023-09-19T01:23:11;10.65;;;5.88;;
71148;SDS011;59072;42.144;25.200;2023-09-19T01:31:09;10.52;;;5.68;;
71148;SDS011;59072;42.144;25.200;2023-09-19T01:36:24;11.73;;;6.13;;
71148;SDS011;59072;42.144;25.200;2023-09-19T01:38:51;11.13;;;5.68;;
71148;SDS011;59072;42.144;25.200;2023-09-19T01:41:20;10.52;;;6.53;;
71148;SDS011;59072;42.144;25.200;2023-09-19T01:43:51;11.57;;;6.10;;
71148;SDS011;59072;42.144;25.200;2023-09-19T01:46:30;10.68;;;6.10;;
71148;SDS011;59072;42.144;25.200;2023-09-19T01:52:12;10.35;;;6.18;;
71148;SDS011;59072;42.144;25.200;2023-09-19T01:55:01;9.07;;;5.82;;
71148;SDS011;59072;42.144;25.200;2023-09-19T01:57:40;10.13;;;5.97;;
71148;SDS011;59072;42.144;25.200;2023-09-19T02:00:29;10.10;;;6.22;;
71148;SDS011;59072;42.144;25.200;2023-09-19T02:02:59;15.75;;;8.68;;
71148;SDS011;59072;42.144;25.200;2023-09-19T02:05:25;16.08;;;8.68;;
71148;SDS011;59072;42.144;25.200;2023-09-19T02:07:52;17.23;;;7.80;;
71148;SDS011;59072;42.144;25.200;2023-09-19T02:10:18;14.68;;;7.97;;
71148;SDS011;59072;42.144;25.200;2023-09-19T02:12:44;11.30;;;6.30;;
71148;SDS011;59072;42.144;25.200;2023-09-19T02:15:10;11.27;;;6.57;;
71148;SDS011;59072;42.144;25.200;2023-09-19T02:17:35;14.65;;;6.75;;
71148;SDS011;59072;42.144;25.200;2023-09-19T02:20:01;11.45;;;6.65;;
71148;SDS011;59072;42.144;25.200;2023-09-19T02:22:28;9.33;;;6.10;;
71148;SDS011;59072;42.144;25.200;2023-09-19T02:24:54;10.93;;;5.95;;
71148;SDS011;59072;42.144;25.200;2023-09-19T02:27:23;14.65;;;6.40;;
71148;SDS011;59072;42.144;25.200;2023-09-19T02:29:49;11.93;;;5.70;;
71148;SDS011;59072;42.144;25.200;2023-09-19T02:32:14;9.18;;;5.40;;
71148;SDS011;59072;42.144;25.200;2023-09-19T02:34:40;10.50;;;6.38;;
71148;SDS011;59072;42.144;25.200;2023-09-19T02:37:06;9.75;;;6.30;;
71148;SDS011;59072;42.144;25.200;2023-09-19T02:39:33;9.52;;;6.03;;
71148;SDS011;59072;42.144;25.200;2023-09-19T02:41:59;10.18;;;5.82;;
71148;SDS011;59072;42.144;25.200;2023-09-19T02:44:24;11.38;;;5.82;;
71148;SDS011;59072;42.144;25.200;2023-09-19T02:46:50;8.90;;;5.40;;
71148;SDS011;59072;42.144;25.200;2023-09-19T02:49:15;9.23;;;5.78;;
71148;SDS011;59072;42.144;25.200;2023-09-19T02:51:43;10.55;;;6.22;;
71148;SDS011;59072;42.144;25.200;2023-09-19T02:54:09;10.35;;;5.85;;
71148;SDS011;59072;42.144;25.200;2023-09-19T02:56:34;12.38;;;5.88;;
71148;SDS011;59072;42.144;25.200;2023-09-19T02:59:00;9.43;;;6.35;;
71148;SDS011;59072;42.144;25.200;2023-09-19T03:01:26;9.07;;;5.72;;
71148;SDS011;59072;42.144;25.200;2023-09-19T03:03:53;10.55;;;6.40;;
71148;SDS011;59072;42.144;25.200;2023-09-19T03:06:19;10.02;;;6.43;;
71148;SDS011;59072;42.144;25.200;2023-09-19T03:08:45;9.73;;;6.30;;
71148;SDS011;59072;42.144;25.200;2023-09-19T03:11:11;10.45;;;6.05;;
71148;SDS011;59072;42.144;25.200;2023-09-19T03:16:06;8.53;;;6.27;;
71148;SDS011;59072;42.144;25.200;2023-09-19T03:18:35;12.57;;;6.68;;
71148;SDS011;59072;42.144;25.200;2023-09-19T03:23:26;9.60;;;6.63;;
71148;SDS011;59072;42.144;25.200;2023-09-19T03:25:52;11.18;;;5.43;;
71148;SDS011;59072;42.144;25.200;2023-09-19T03:28:18;11.65;;;5.90;;
71148;SDS011;59072;42.144;25.200;2023-09-19T03:30:45;9.40;;;6.07;;
71148;SDS011;59072;42.144;25.200;2023-09-19T03:33:11;9.98;;;5.82;;
71148;SDS011;59072;42.144;25.200;2023-09-19T03:35:37;9.05;;;5.75;;
71148;SDS011;59072;42.144;25.200;2023-09-19T03:38:04;9.45;;;5.55;;
71148;SDS011;59072;42.144;25.200;2023-09-19T03:40:30;11.15;;;5.97;;
71148;SDS011;59072;42.144;25.200;2023-09-19T03:42:55;10.05;;;6.07;;
71148;SDS011;59072;42.144;25.200;2023-09-19T03:45:21;11.48;;;6.47;;
71148;SDS011;59072;42.144;25.200;2023-09-19T03:47:46;11.23;;;5.93;;
71148;SDS011;59072;42.144;25.200;2023-09-19T03:50:12;12.80;;;6.68;;
71148;SDS011;59072;42.144;25.200;2023-09-19T03:52:43;14.80;;;6.68;;
71148;SDS011;59072;42.144;25.200;2023-09-19T03:55:09;10.75;;;6.13;;
71148;SDS011;59072;42.144;25.200;2023-09-19T03:57:35;11.93;;;6.60;;
71148;SDS011;59072;42.144;25.200;2023-09-19T04:00:01;10.02;;;6.38;;
71148;SDS011;59072;42.144;25.200;2023-09-19T04:02:27;13.43;;;6.45;;
71148;SDS011;59072;42.144;25.200;2023-09-19T04:04:58;12.25;;;6.60;;
71148;SDS011;59072;42.144;25.200;2023-09-19T04:07:23;11.63;;;6.60;;
71148;SDS011;59072;42.144;25.200;2023-09-19T04:09:53;14.80;;;6.30;;
71148;SDS011;59072;42.144;25.200;2023-09-19T04:12:18;10.65;;;6.75;;
71148;SDS011;59072;42.144;25.200;2023-09-19T04:14:44;11.30;;;6.30;;
71148;SDS011;59072;42.144;25.200;2023-09-19T04:17:10;9.98;;;6.72;;
71148;SDS011;59072;42.144;25.200;2023-09-19T04:19:36;10.82;;;6.88;;
71148;SDS011;59072;42.144;25.200;2023-09-19T04:22:01;12.15;;;7.13;;
71148;SDS011;59072;42.144;25.200;2023-09-19T04:24:28;12.05;;;7.00;;
71148;SDS011;59072;42.144;25.200;2023-09-19T04:26:53;12.38;;;6.55;;
71148;SDS011;59072;42.144;25.200;2023-09-19T04:29:18;13.20;;;7.70;;
71148;SDS011;59072;42.144;25.200;2023-09-19T04:31:45;12.88;;;6.80;;
71148;SDS011;59072;42.144;25.200;2023-09-19T04:34:12;10.70;;;6.75;;
71148;SDS011;59072;42.144;25.200;2023-09-19T04:36:41;13.95;;;6.15;;
71148;SDS011;59072;42.144;25.200;2023-09-19T04:39:06;10.80;;;5.70;;
71148;SDS011;59072;42.144;25.200;2023-09-19T04:41:32;11.25;;;6.00;;
71148;SDS011;59072;42.144;25.200;2023-09-19T04:43:59;16.45;;;6.85;;
71148;SDS011;59072;42.144;25.200;2023-09-19T04:48:52;19.58;;;7.78;;
71148;SDS011;59072;42.144;25.200;2023-09-19T04:51:17;10.65;;;5.75;;
71148;SDS011;59072;42.144;25.200;2023-09-19T04:53:44;9.98;;;5.93;;
71148;SDS011;59072;42.144;25.200;2023-09-19T04:56:09;12.18;;;6.50;;
71148;SDS011;59072;42.144;25.200;2023-09-19T04:58:34;10.82;;;6.88;;
71148;SDS011;59072;42.144;25.200;2023-09-19T05:01:00;10.98;;;6.78;;
71148;SDS011;59072;42.144;25.200;2023-09-19T05:03:29;14.38;;;7.28;;
71148;SDS011;59072;42.144;25.200;2023-09-19T05:05:54;12.95;;;7.30;;
71148;SDS011;59072;42.144;25.200;2023-09-19T05:08:20;11.23;;;7.05;;
71148;SDS011;59072;42.144;25.200;2023-09-19T05:10:47;10.73;;;6.97;;
71148;SDS011;59072;42.144;25.200;2023-09-19T05:13:16;10.48;;;6.68;;
71148;SDS011;59072;42.144;25.200;2023-09-19T05:15:41;12.85;;;7.50;;
71148;SDS011;59072;42.144;25.200;2023-09-19T05:18:07;8.48;;;6.22;;
71148;SDS011;59072;42.144;25.200;2023-09-19T05:20:33;13.35;;;6.88;;
71148;SDS011;59072;42.144;25.200;2023-09-19T05:23:01;10.32;;;6.93;;
71148;SDS011;59072;42.144;25.200;2023-09-19T05:25:31;13.27;;;8.07;;
71148;SDS011;59072;42.144;25.200;2023-09-19T05:27:57;12.98;;;9.02;;
71148;SDS011;59072;42.144;25.200;2023-09-19T05:30:24;16.70;;;8.82;;
71148;SDS011;59072;42.144;25.200;2023-09-19T05:32:54;12.43;;;7.75;;
71148;SDS011;59072;42.144;25.200;2023-09-19T05:35:20;12.95;;;7.82;;
71148;SDS011;59072;42.144;25.200;2023-09-19T05:37:47;13.32;;;8.82;;
71148;SDS011;59072;42.144;25.200;2023-09-19T05:40:19;12.38;;;8.07;;
71148;SDS011;59072;42.144;25.200;2023-09-19T05:42:45;13.32;;;8.48;;
71148;SDS011;59072;42.144;25.200;2023-09-19T05:45:11;15.20;;;8.65;;
71148;SDS011;59072;42.144;25.200;2023-09-19T05:47:38;13.88;;;7.90;;
71148;SDS011;59072;42.144;25.200;2023-09-19T05:50:05;13.73;;;8.63;;
71148;SDS011;59072;42.144;25.200;2023-09-19T05:52:32;14.88;;;8.98;;
71148;SDS011;59072;42.144;25.200;2023-09-19T05:54:58;13.15;;;8.10;;
71148;SDS011;59072;42.144;25.200;2023-09-19T05:57:23;12.63;;;8.27;;
71148;SDS011;59072;42.144;25.200;2023-09-19T05:59:49;11.77;;;8.05;;
71148;SDS011;59072;42.144;25.200;2023-09-19T06:02:15;14.02;;;8.38;;
71148;SDS011;59072;42.144;25.200;2023-09-19T06:04:41;12.90;;;7.47;;
71148;SDS011;59072;42.144;25.200;2023-09-19T06:07:06;15.13;;;8.32;;
71148;SDS011;59072;42.144;25.200;2023-09-19T06:09:32;12.82;;;8.18;;
71148;SDS011;59072;42.144;25.200;2023-09-19T06:11:57;12.70;;;8.10;;
71148;SDS011;59072;42.144;25.200;2023-09-19T06:14:25;10.02;;;6.70;;
71148;SDS011;59072;42.144;25.200;2023-09-19T06:16:50;13.45;;;6.53;;
71148;SDS011;59072;42.144;25.200;2023-09-19T06:19:19;11.50;;;6.80;;
71148;SDS011;59072;42.144;25.200;2023-09-19T06:21:48;11.88;;;7.45;;
71148;SDS011;59072;42.144;25.200;2023-09-19T06:24:14;18.20;;;11.48;;
71148;SDS011;59072;42.144;25.200;2023-09-19T06:26:40;40.13;;;27.05;;
71148;SDS011;59072;42.144;25.200;2023-09-19T06:29:05;83.22;;;53.75;;
71148;SDS011;59072;42.144;25.200;2023-09-19T06:31:32;58.88;;;37.53;;
71148;SDS011;59072;42.144;25.200;2023-09-19T06:33:58;53.63;;;32.85;;
71148;SDS011;59072;42.144;25.200;2023-09-19T06:36:26;27.33;;;16.50;;
71148;SDS011;59072;42.144;25.200;2023-09-19T06:38:54;33.30;;;18.15;;
71148;SDS011;59072;42.144;25.200;2023-09-19T06:41:19;17.00;;;10.93;;
71148;SDS011;59072;42.144;25.200;2023-09-19T06:43:49;11.65;;;6.90;;
71148;SDS011;59072;42.144;25.200;2023-09-19T06:46:18;18.10;;;9.10;;
71148;SDS011;59072;42.144;25.200;2023-09-19T06:48:44;13.10;;;7.50;;
71148;SDS011;59072;42.144;25.200;2023-09-19T06:51:09;11.20;;;6.07;;
71148;SDS011;59072;42.144;25.200;2023-09-19T06:53:35;13.57;;;8.20;;
71148;SDS011;59072;42.144;25.200;2023-09-19T06:56:01;10.60;;;6.78;;
71148;SDS011;59072;42.144;25.200;2023-09-19T06:58:27;11.80;;;6.60;;
71148;SDS011;59072;42.144;25.200;2023-09-19T07:00:55;9.35;;;6.03;;
71148;SDS011;59072;42.144;25.200;2023-09-19T07:03:21;9.15;;;5.65;;
71148;SDS011;59072;42.144;25.200;2023-09-19T07:05:50;10.45;;;6.30;;
71148;SDS011;59072;42.144;25.200;2023-09-19T07:08:15;17.10;;;12.65;;
71148;SDS011;59072;42.144;25.200;2023-09-19T07:10:41;15.95;;;12.73;;
71148;SDS011;59072;42.144;25.200;2023-09-19T07:13:13;29.48;;;23.80;;
71148;SDS011;59072;42.144;25.200;2023-09-19T07:15:42;7.93;;;6.38;;
71148;SDS011;59072;42.144;25.200;2023-09-19T07:18:15;8.27;;;5.68;;
71148;SDS011;59072;42.144;25.200;2023-09-19T07:20:45;22.30;;;19.38;;
71148;SDS011;59072;42.144;25.200;2023-09-19T07:23:23;11.82;;;7.32;;
71148;SDS011;59072;42.144;25.200;2023-09-19T07:25:49;12.38;;;8.13;;
71148;SDS011;59072;42.144;25.200;2023-09-19T07:28:14;10.80;;;5.32;;
71148;SDS011;59072;42.144;25.200;2023-09-19T07:30:41;10.13;;;6.13;;
71148;SDS011;59072;42.144;25.200;2023-09-19T07:33:07;8.90;;;5.40;;
71148;SDS011;59072;42.144;25.200;2023-09-19T07:35:33;7.93;;;4.45;;
71148;SDS011;59072;42.144;25.200;2023-09-19T07:37:58;6.97;;;4.40;;
71148;SDS011;59072;42.144;25.200;2023-09-19T07:40:26;9.13;;;4.82;;
71148;SDS011;59072;42.144;25.200;2023-09-19T07:42:53;8.75;;;4.90;;
71148;SDS011;59072;42.144;25.200;2023-09-19T07:45:22;8.13;;;5.05;;
71148;SDS011;59072;42.144;25.200;2023-09-19T07:47:48;9.40;;;5.70;;
71148;SDS011;59072;42.144;25.200;2023-09-19T07:50:15;7.25;;;4.90;;
71148;SDS011;59072;42.144;25.200;2023-09-19T07:52:41;8.33;;;5.60;;
71148;SDS011;59072;42.144;25.200;2023-09-19T07:55:08;8.73;;;4.65;;
71148;SDS011;59072;42.144;25.200;2023-09-19T07:57:34;7.13;;;4.68;;
71148;SDS011;59072;42.144;25.200;2023-09-19T08:00:01;10.80;;;5.53;;
71148;SDS011;59072;42.144;25.200;2023-09-19T08:02:29;8.10;;;5.10;;
71148;SDS011;59072;42.144;25.200;2023-09-19T08:04:55;10.95;;;7.05;;
71148;SDS011;59072;42.144;25.200;2023-09-19T08:07:23;13.52;;;7.95;;
71148;SDS011;59072;42.144;25.200;2023-09-19T08:09:49;24.58;;;15.35;;
71148;SDS011;59072;42.144;25.200;2023-09-19T08:12:14;8.50;;;5.30;;
71148;SDS011;59072;42.144;25.200;2023-09-19T08:14:40;12.90;;;9.90;;
71148;SDS011;59072;42.144;25.200;2023-09-19T08:17:06;7.82;;;5.20;;
71148;SDS011;59072;42.144;25.200;2023-09-19T08:19:33;8.93;;;5.68;;
71148;SDS011;59072;42.144;25.200;2023-09-19T08:21:58;10.57;;;6.30;;
71148;SDS011;59072;42.144;25.200;2023-09-19T08:24:25;9.90;;;5.88;;
71148;SDS011;59072;42.144;25.200;2023-09-19T08:26:53;13.52;;;7.95;;
71148;SDS011;59072;42.144;25.200;2023-09-19T08:29:23;12.95;;;7.53;;
71148;SDS011;59072;42.144;25.200;2023-09-19T08:31:58;11.55;;;6.80;;
71148;SDS011;59072;42.144;25.200;2023-09-19T08:34:27;7.35;;;4.60;;
71148;SDS011;59072;42.144;25.200;2023-09-19T08:36:53;10.55;;;6.30;;
71148;SDS011;59072;42.144;25.200;2023-09-19T08:39:23;10.77;;;7.22;;
71148;SDS011;59072;42.144;25.200;2023-09-19T08:41:49;8.38;;;5.35;;
71148;SDS011;59072;42.144;25.200;2023-09-19T08:44:14;8.30;;;4.97;;
71148;SDS011;59072;42.144;25.200;2023-09-19T08:46:41;8.50;;;5.43;;
71148;SDS011;59072;42.144;25.200;2023-09-19T08:51:49;12.88;;;4.82;;
71148;SDS011;59072;42.144;25.200;2023-09-19T08:54:24;6.82;;;4.45;;
71148;SDS011;59072;42.144;25.200;2023-09-19T08:56:53;9.35;;;4.55;;
71148;SDS011;59072;42.144;25.200;2023-09-19T08:59:24;7.57;;;4.32;;
71148;SDS011;59072;42.144;25.200;2023-09-19T09:01:52;6.78;;;4.13;;
71148;SDS011;59072;42.144;25.200;2023-09-19T09:04:19;7.40;;;4.38;;
71148;SDS011;59072;42.144;25.200;2023-09-19T09:06:47;7.63;;;4.35;;
71148;SDS011;59072;42.144;25.200;2023-09-19T09:09:18;8.00;;;4.28;;
71148;SDS011;59072;42.144;25.200;2023-09-19T09:11:43;6.90;;;4.43;;
71148;SDS011;59072;42.144;25.200;2023-09-19T09:14:18;8.38;;;4.13;;
71148;SDS011;59072;42.144;25.200;2023-09-19T09:16:46;9.40;;;4.50;;
71148;SDS011;59072;42.144;25.200;2023-09-19T09:19:13;6.40;;;4.18;;
71148;SDS011;59072;42.144;25.200;2023-09-19T09:21:41;6.90;;;4.40;;
71148;SDS011;59072;42.144;25.200;2023-09-19T09:26:55;6.18;;;4.20;;
71148;SDS011;59072;42.144;25.200;2023-09-19T09:29:39;8.68;;;5.30;;
71148;SDS011;59072;42.144;25.200;2023-09-19T09:34:54;7.55;;;3.67;;
71148;SDS011;59072;42.144;25.200;2023-09-19T09:37:23;7.63;;;4.40;;
71148;SDS011;59072;42.144;25.200;2023-09-19T09:39:59;6.85;;;4.10;;
71148;SDS011;59072;42.144;25.200;2023-09-19T09:42:39;8.27;;;4.00;;
71148;SDS011;59072;42.144;25.200;2023-09-19T09:45:16;5.93;;;3.80;;
71148;SDS011;59072;42.144;25.200;2023-09-19T09:48:14;8.07;;;3.90;;
71148;SDS011;59072;42.144;25.200;2023-09-19T09:50:46;8.95;;;3.58;;
71148;SDS011;59072;42.144;25.200;2023-09-19T09:53:25;7.28;;;4.03;;
71148;SDS011;59072;42.144;25.200;2023-09-19T09:56:08;8.77;;;3.60;;
71148;SDS011;59072;42.144;25.200;2023-09-19T09:58:35;5.65;;;3.40;;
71148;SDS011;59072;42.144;25.200;2023-09-19T10:01:02;8.35;;;3.20;;
71148;SDS011;59072;42.144;25.200;2023-09-19T10:03:40;6.40;;;3.30;;
71148;SDS011;59072;42.144;25.200;2023-09-19T10:06:13;8.05;;;3.38;;
71148;SDS011;59072;42.144;25.200;2023-09-19T10:09:05;7.45;;;3.30;;
71148;SDS011;59072;42.144;25.200;2023-09-19T10:11:35;6.00;;;3.67;;
71148;SDS011;59072;42.144;25.200;2023-09-19T10:14:04;7.55;;;3.40;;
71148;SDS011;59072;42.144;25.200;2023-09-19T10:16:31;7.35;;;3.13;;
71148;SDS011;59072;42.144;25.200;2023-09-19T10:18:59;6.50;;;3.78;;
71148;SDS011;59072;42.144;25.200;2023-09-19T10:21:31;5.78;;;3.13;;
71148;SDS011;59072;42.144;25.200;2023-09-19T10:23:58;7.22;;;3.05;;
71148;SDS011;59072;42.144;25.200;2023-09-19T10:26:26;7.47;;;3.20;;
71148;SDS011;59072;42.144;25.200;2023-09-19T10:28:56;6.18;;;3.10;;
71148;SDS011;59072;42.144;25.200;2023-09-19T10:31:24;5.40;;;2.80;;
71148;SDS011;59072;42.144;25.200;2023-09-19T10:33:53;6.40;;;3.22;;
71148;SDS011;59072;42.144;25.200;2023-09-19T10:36:21;5.63;;;3.58;;
71148;SDS011;59072;42.144;25.200;2023-09-19T10:38:50;8.48;;;4.45;;
71148;SDS011;59072;42.144;25.200;2023-09-19T10:41:21;7.90;;;4.78;;
71148;SDS011;59072;42.144;25.200;2023-09-19T10:43:48;9.57;;;4.63;;
71148;SDS011;59072;42.144;25.200;2023-09-19T10:46:13;6.47;;;3.50;;
71148;SDS011;59072;42.144;25.200;2023-09-19T10:48:40;6.22;;;4.10;;
71148;SDS011;59072;42.144;25.200;2023-09-19T10:51:09;7.55;;;3.70;;
71148;SDS011;59072;42.144;25.200;2023-09-19T10:53:48;7.05;;;4.03;;
71148;SDS011;59072;42.144;25.200;2023-09-19T10:59:05;17.50;;;3.20;;
71148;SDS011;59072;42.144;25.200;2023-09-19T11:01:45;19.95;;;3.60;;
71148;SDS011;59072;42.144;25.200;2023-09-19T11:04:28;6.72;;;3.00;;
71148;SDS011;59072;42.144;25.200;2023-09-19T11:07:05;5.93;;;2.75;;
71148;SDS011;59072;42.144;25.200;2023-09-19T11:09:55;6.60;;;2.80;;
71148;SDS011;59072;42.144;25.200;2023-09-19T11:15:00;4.03;;;2.80;;
71148;SDS011;59072;42.144;25.200;2023-09-19T11:30:38;5.32;;;2.95;;
71148;SDS011;59072;42.144;25.200;2023-09-19T11:36:02;4.72;;;2.95;;
71148;SDS011;59072;42.144;25.200;2023-09-19T11:43:46;6.18;;;3.10;;
71148;SDS011;59072;42.144;25.200;2023-09-19T11:46:12;5.40;;;3.25;;
71148;SDS011;59072;42.144;25.200;2023-09-19T11:48:41;5.25;;;3.00;;
71148;SDS011;59072;42.144;25.200;2023-09-19T11:51:19;4.50;;;2.83;;
71148;SDS011;59072;42.144;25.200;2023-09-19T11:53:51;6.22;;;2.83;;
71148;SDS011;59072;42.144;25.200;2023-09-19T11:56:18;5.60;;;2.83;;
71148;SDS011;59072;42.144;25.200;2023-09-19T11:58:52;6.00;;;2.95;;
71148;SDS011;59072;42.144;25.200;2023-09-19T12:01:32;4.40;;;2.75;;
71148;SDS011;59072;42.144;25.200;2023-09-19T12:04:00;5.40;;;2.92;;
71148;SDS011;59072;42.144;25.200;2023-09-19T12:06:29;5.63;;;2.40;;
71148;SDS011;59072;42.144;25.200;2023-09-19T12:08:57;6.53;;;3.05;;
71148;SDS011;59072;42.144;25.200;2023-09-19T12:11:26;5.38;;;3.05;;
71148;SDS011;59072;42.144;25.200;2023-09-19T12:13:54;5.38;;;2.97;;
71148;SDS011;59072;42.144;25.200;2023-09-19T12:16:23;5.03;;;2.70;;
71148;SDS011;59072;42.144;25.200;2023-09-19T12:18:50;6.18;;;2.90;;
71148;SDS011;59072;42.144;25.200;2023-09-19T12:26:44;6.38;;;3.20;;
71148;SDS011;59072;42.144;25.200;2023-09-19T12:29:24;5.47;;;3.05;;
71148;SDS011;59072;42.144;25.200;2023-09-19T12:31:54;4.82;;;3.10;;
71148;SDS011;59072;42.144;25.200;2023-09-19T12:34:24;5.40;;;2.60;;
71148;SDS011;59072;42.144;25.200;2023-09-19T12:39:31;5.97;;;2.78;;
71148;SDS011;59072;42.144;25.200;2023-09-19T12:41:59;4.15;;;2.47;;
71148;SDS011;59072;42.144;25.200;2023-09-19T12:44:29;5.20;;;2.75;;
71148;SDS011;59072;42.144;25.200;2023-09-19T12:46:55;4.38;;;2.50;;
71148;SDS011;59072;42.144;25.200;2023-09-19T12:49:24;5.65;;;2.88;;
71148;SDS011;59072;42.144;25.200;2023-09-19T12:51:54;6.68;;;3.08;;
71148;SDS011;59072;42.144;25.200;2023-09-19T12:54:20;5.60;;;2.72;;
71148;SDS011;59072;42.144;25.200;2023-09-19T12:56:47;6.35;;;3.03;;
71148;SDS011;59072;42.144;25.200;2023-09-19T12:59:15;5.97;;;2.92;;
71148;SDS011;59072;42.144;25.200;2023-09-19T13:01:41;5.30;;;2.80;;
71148;SDS011;59072;42.144;25.200;2023-09-19T13:04:18;8.45;;;3.28;;
71148;SDS011;59072;42.144;25.200;2023-09-19T13:06:46;5.68;;;2.63;;
71148;SDS011;59072;42.144;25.200;2023-09-19T13:09:14;7.43;;;3.30;;
71148;SDS011;59072;42.144;25.200;2023-09-19T13:11:40;6.25;;;2.80;;
71148;SDS011;59072;42.144;25.200;2023-09-19T13:14:25;5.30;;;2.60;;
71148;SDS011;59072;42.144;25.200;2023-09-19T13:17:03;4.90;;;2.78;;
71148;SDS011;59072;42.144;25.200;2023-09-19T13:19:38;8.80;;;4.00;;
71148;SDS011;59072;42.144;25.200;2023-09-19T13:25:03;7.93;;;4.10;;
71148;SDS011;59072;42.144;25.200;2023-09-19T13:27:31;11.05;;;5.20;;
71148;SDS011;59072;42.144;25.200;2023-09-19T13:29:58;8.23;;;3.42;;
71148;SDS011;59072;42.144;25.200;2023-09-19T13:32:24;10.33;;;5.47;;
71148;SDS011;59072;42.144;25.200;2023-09-19T13:34:49;7.32;;;3.85;;
71148;SDS011;59072;42.144;25.200;2023-09-19T13:37:16;7.70;;;3.70;;
71148;SDS011;59072;42.144;25.200;2023-09-19T13:39:43;7.73;;;3.00;;
71148;SDS011;59072;42.144;25.200;2023-09-19T13:42:12;10.43;;;3.90;;
71148;SDS011;59072;42.144;25.200;2023-09-19T13:44:40;5.18;;;2.78;;
71148;SDS011;59072;42.144;25.200;2023-09-19T13:47:06;10.77;;;4.22;;
71148;SDS011;59072;42.144;25.200;2023-09-19T13:49:34;4.55;;;2.60;;
71148;SDS011;59072;42.144;25.200;2023-09-19T13:54:30;10.35;;;4.75;;
71148;SDS011;59072;42.144;25.200;2023-09-19T13:56:58;9.15;;;3.83;;
71148;SDS011;59072;42.144;25.200;2023-09-19T13:59:23;8.75;;;3.67;;
71148;SDS011;59072;42.144;25.200;2023-09-19T14:01:49;7.53;;;2.95;;
71148;SDS011;59072;42.144;25.200;2023-09-19T14:04:15;5.18;;;2.80;;
71148;SDS011;59072;42.144;25.200;2023-09-19T14:06:42;6.13;;;2.60;;
71148;SDS011;59072;42.144;25.200;2023-09-19T14:09:08;4.18;;;2.22;;
71148;SDS011;59072;42.144;25.200;2023-09-19T14:14:00;6.83;;;3.20;;
71148;SDS011;59072;42.144;25.200;2023-09-19T14:16:26;4.85;;;2.30;;
71148;SDS011;59072;42.144;25.200;2023-09-19T14:18:56;7.05;;;2.85;;
71148;SDS011;59072;42.144;25.200;2023-09-19T14:21:25;5.50;;;2.67;;
71148;SDS011;59072;42.144;25.200;2023-09-19T14:23:51;4.97;;;2.40;;
71148;SDS011;59072;42.144;25.200;2023-09-19T14:26:16;6.15;;;2.30;;
71148;SDS011;59072;42.144;25.200;2023-09-19T14:28:43;6.00;;;2.42;;
71148;SDS011;59072;42.144;25.200;2023-09-19T14:31:10;7.57;;;2.80;;
71148;SDS011;59072;42.144;25.200;2023-09-19T14:33:36;7.43;;;2.30;;
71148;SDS011;59072;42.144;25.200;2023-09-19T14:36:06;8.10;;;3.97;;
71148;SDS011;59072;42.144;25.200;2023-09-19T14:38:34;5.78;;;3.33;;
71148;SDS011;59072;42.144;25.200;2023-09-19T14:41:04;5.13;;;2.55;;
71148;SDS011;59072;42.144;25.200;2023-09-19T14:43:31;4.30;;;2.55;;
71148;SDS011;59072;42.144;25.200;2023-09-19T14:45:57;4.57;;;2.83;;
71148;SDS011;59072;42.144;25.200;2023-09-19T14:48:28;4.38;;;2.55;;
71148;SDS011;59072;42.144;25.200;2023-09-19T14:50:54;4.20;;;2.08;;
71148;SDS011;59072;42.144;25.200;2023-09-19T14:53:27;4.72;;;2.25;;
71148;SDS011;59072;42.144;25.200;2023-09-19T14:55:52;3.47;;;2.15;;
71148;SDS011;59072;42.144;25.200;2023-09-19T14:58:20;3.95;;;2.28;;
71148;SDS011;59072;42.144;25.200;2023-09-19T15:00:51;4.38;;;2.20;;
71148;SDS011;59072;42.144;25.200;2023-09-19T15:03:17;4.68;;;2.30;;
71148;SDS011;59072;42.144;25.200;2023-09-19T15:05:43;4.43;;;2.43;;
71148;SDS011;59072;42.144;25.200;2023-09-19T15:08:08;4.07;;;2.40;;
71148;SDS011;59072;42.144;25.200;2023-09-19T15:10:34;5.67;;;2.50;;
71148;SDS011;59072;42.144;25.200;2023-09-19T15:12:59;4.13;;;2.80;;
71148;SDS011;59072;42.144;25.200;2023-09-19T15:15:25;4.73;;;2.50;;
71148;SDS011;59072;42.144;25.200;2023-09-19T15:17:50;4.90;;;2.47;;
71148;SDS011;59072;42.144;25.200;2023-09-19T15:20:16;3.77;;;2.17;;
71148;SDS011;59072;42.144;25.200;2023-09-19T15:22:42;7.15;;;2.50;;
71148;SDS011;59072;42.144;25.200;2023-09-19T15:25:10;8.35;;;2.88;;
71148;SDS011;59072;42.144;25.200;2023-09-19T15:27:35;8.18;;;2.65;;
71148;SDS011;59072;42.144;25.200;2023-09-19T15:30:04;4.65;;;2.10;;
71148;SDS011;59072;42.144;25.200;2023-09-19T15:32:33;6.40;;;2.75;;
71148;SDS011;59072;42.144;25.200;2023-09-19T15:34:58;11.90;;;2.92;;
71148;SDS011;59072;42.144;25.200;2023-09-19T15:37:23;7.93;;;2.55;;
71148;SDS011;59072;42.144;25.200;2023-09-19T15:39:50;7.93;;;2.58;;
71148;SDS011;59072;42.144;25.200;2023-09-19T15:42:16;6.38;;;2.63;;
71148;SDS011;59072;42.144;25.200;2023-09-19T15:44:42;6.55;;;2.40;;
71148;SDS011;59072;42.144;25.200;2023-09-19T15:49:38;18.48;;;4.13;;
71148;SDS011;59072;42.144;25.200;2023-09-19T15:52:03;5.78;;;2.28;;
71148;SDS011;59072;42.144;25.200;2023-09-19T15:54:29;6.82;;;2.50;;